createdAt,value
2019-04-14T00:00:46.877Z,71.42
2019-04-14T00:03:26.453Z,71.64
2019-04-14T00:06:02.705Z,71.16
2019-04-14T00:08:34.841Z,71.46
2019-04-14T00:11:06.261Z,70.92
2019-04-14T00:13:39.263Z,71.10
2019-04-14T00:16:11.748Z,71.47
2019-04-14T00:18:44.654Z,70.69
2019-04-14T00:21:17.553Z,70.87
2019-04-14T00:23:50.148Z,70.83
2019-04-14T00:26:33.528Z,70.47
2019-04-14T00:29:06.691Z,69.61
2019-04-14T00:31:39.107Z,70.51
2019-04-14T00:34:35.495Z,69.87
2019-04-14T00:37:25.202Z,70.67
2019-04-14T00:40:01.942Z,70.75
2019-04-14T00:42:43.750Z,70.49
2019-04-14T00:45:37.905Z,71.22
2019-04-14T00:48:15.810Z,71.09
2019-04-14T00:50:45.156Z,71.53
2019-04-14T00:53:16.926Z,72.09
2019-04-14T00:55:48.949Z,72.16
2019-04-14T00:58:21.477Z,71.93
2019-04-14T01:00:53.830Z,72.44
2019-04-14T01:03:25.164Z,71.72
2019-04-14T01:05:56.907Z,72.22
2019-04-14T01:08:29.216Z,72.40
2019-04-14T01:11:01.023Z,73.00
2019-04-14T01:13:33.273Z,73.14
2019-04-14T01:16:11.574Z,73.56
2019-04-14T01:18:38.658Z,73.50
2019-04-14T01:21:11.030Z,73.86
2019-04-14T01:23:43.453Z,73.57
2019-04-14T01:26:15.938Z,73.99
2019-04-14T01:28:48.334Z,74.04
2019-04-14T01:31:20.545Z,73.55
2019-04-14T01:33:51.856Z,73.94
2019-04-14T01:36:23.607Z,73.89
2019-04-14T01:38:55.728Z,72.77
2019-04-14T01:41:28.217Z,73.55
2019-04-14T01:44:00.326Z,73.70
2019-04-14T01:46:34.013Z,73.93
2019-04-14T01:49:05.127Z,73.41
2019-04-14T01:51:48.964Z,73.57
2019-04-14T01:54:40.975Z,74.11
2019-04-14T01:57:29.057Z,73.60
2019-04-14T02:00:20.795Z,73.74
2019-04-14T02:02:53.089Z,73.57
2019-04-14T02:05:25.708Z,74.44
2019-04-14T02:07:58.008Z,74.01
2019-04-14T02:10:30.502Z,74.25
2019-04-14T02:13:02.870Z,73.58
2019-04-14T02:15:35.204Z,73.72
2019-04-14T02:18:07.836Z,73.62
2019-04-14T02:20:40.274Z,73.61
2019-04-14T02:23:12.593Z,73.64
2019-04-14T02:25:45.096Z,74.43
2019-04-14T02:28:17.647Z,73.08
2019-04-14T02:31:00.127Z,73.23
2019-04-14T02:33:59.832Z,72.89
2019-04-14T02:38:55.275Z,73.68
2019-04-14T02:44:04.182Z,73.16
2019-04-14T02:46:47.781Z,73.10
2019-04-14T02:49:08.187Z,73.23
2019-04-14T02:51:40.083Z,73.31
2019-04-14T02:54:22.858Z,73.14
2019-04-14T02:59:23.019Z,74.08
2019-04-14T03:02:09.994Z,74.08
2019-04-14T03:04:25.783Z,74.42
2019-04-14T03:12:09.672Z,74.13
2019-04-14T03:17:30.232Z,74.75
2019-04-14T03:23:14.789Z,74.80
2019-04-14T03:25:49.790Z,75.21
2019-04-14T03:39:00.000Z,76.10
2019-04-14T03:43:48.311Z,75.86
2019-04-14T03:52:08.733Z,76.23
2019-04-14T03:54:06.241Z,75.71
2019-04-14T03:56:55.711Z,76.02
2019-04-14T03:59:28.205Z,76.49
2019-04-14T04:02:00.767Z,76.98
2019-04-14T04:04:33.665Z,77.41
2019-04-14T04:07:06.164Z,77.01
2019-04-14T04:09:41.777Z,76.73
2019-04-14T04:12:13.963Z,76.14
2019-04-14T04:14:46.392Z,77.20
2019-04-14T04:17:43.087Z,78.49
2019-04-14T04:20:30.623Z,77.79
2019-04-14T04:23:29.804Z,78.17
2019-04-14T04:26:19.260Z,77.24
2019-04-14T04:29:02.797Z,77.95
2019-04-14T04:31:53.047Z,77.55
2019-04-14T04:34:44.519Z,76.97
2019-04-14T04:37:50.467Z,77.24
2019-04-14T04:40:28.935Z,76.74
2019-04-14T04:43:01.218Z,76.69
2019-04-14T04:45:34.111Z,75.55
2019-04-14T04:48:08.904Z,76.23
2019-04-14T04:50:41.047Z,75.51
2019-04-14T04:53:13.737Z,74.95
2019-04-14T04:55:46.072Z,74.81
2019-04-14T04:58:17.865Z,75.40
2019-04-14T05:00:51.455Z,74.37
2019-04-14T05:03:23.247Z,74.42
2019-04-14T05:06:50.540Z,74.96
2019-04-14T05:09:44.801Z,74.62
2019-04-14T05:12:39.565Z,76.06
2019-04-14T05:15:33.734Z,73.98
2019-04-14T05:18:05.044Z,75.52
2019-04-14T05:20:37.698Z,74.22
2019-04-14T05:23:10.248Z,75.20
2019-04-14T05:25:43.025Z,75.34
2019-04-14T05:28:15.468Z,75.65
2019-04-14T05:30:48.160Z,75.54
2019-04-14T05:33:20.692Z,75.90
2019-04-14T05:35:53.095Z,75.41
2019-04-14T05:38:25.775Z,75.36
2019-04-14T05:40:58.246Z,75.48
2019-04-14T05:43:38.373Z,76.82
2019-04-14T05:46:06.095Z,75.79
2019-04-14T05:48:38.066Z,77.51
2019-04-14T05:51:11.013Z,74.38
2019-04-14T05:53:43.935Z,75.87
2019-04-14T05:56:16.434Z,77.02
2019-04-14T05:58:49.228Z,75.25
2019-04-14T06:01:22.561Z,75.83
2019-04-14T06:04:11.363Z,74.80
2019-04-14T06:06:43.627Z,75.67
2019-04-14T06:09:15.637Z,74.23
2019-04-14T06:11:46.898Z,73.48
2019-04-14T06:14:18.227Z,74.65
2019-04-14T06:16:50.496Z,74.22
2019-04-14T06:19:21.797Z,75.76
2019-04-14T06:21:53.731Z,73.94
2019-04-14T06:24:25.806Z,75.77
2019-04-14T06:26:57.135Z,74.62
2019-04-14T06:29:28.691Z,76.92
2019-04-14T06:32:19.159Z,76.33
2019-04-14T06:35:10.092Z,77.17
2019-04-14T06:37:53.765Z,76.65
2019-04-14T06:40:26.594Z,76.06
2019-04-14T06:42:58.962Z,75.56
2019-04-14T06:45:30.346Z,74.98
2019-04-14T06:48:02.490Z,75.04
2019-04-14T06:50:34.239Z,74.95
2019-04-14T06:53:06.098Z,74.89
2019-04-14T06:55:37.476Z,74.45
2019-04-14T06:58:10.417Z,74.48
2019-04-14T07:00:41.972Z,73.85
2019-04-14T07:03:13.655Z,73.75
2019-04-14T07:05:46.010Z,74.05
2019-04-14T07:08:21.280Z,73.05
2019-04-14T07:10:53.476Z,72.50
2019-04-14T07:13:26.044Z,72.94
2019-04-14T07:15:58.457Z,72.75
2019-04-14T07:18:30.283Z,72.84
2019-04-14T07:21:02.530Z,72.68
2019-04-14T07:23:34.734Z,72.43
2019-04-14T07:26:07.187Z,71.83
2019-04-14T07:28:39.115Z,71.22
2019-04-14T07:31:22.323Z,71.61
2019-04-14T07:34:13.024Z,71.84
2019-04-14T07:37:03.871Z,71.57
2019-04-14T07:39:49.764Z,71.01
2019-04-14T07:42:33.142Z,70.75
2019-04-14T07:45:10.189Z,70.76
2019-04-14T07:47:59.652Z,70.59
2019-04-14T07:50:54.281Z,70.59
2019-04-14T07:53:35.833Z,70.40
2019-04-14T07:56:17.659Z,70.21
2019-04-14T07:59:08.528Z,70.41
2019-04-14T08:01:49.912Z,69.81
2019-04-14T08:04:33.274Z,69.20
2019-04-14T08:07:06.546Z,69.80
2019-04-14T08:09:38.760Z,69.27
2019-04-14T08:12:10.326Z,69.68
2019-04-14T08:14:41.842Z,69.70
2019-04-14T08:17:13.258Z,69.62
2019-04-14T08:19:45.130Z,69.46
2019-04-14T08:22:16.864Z,69.49
2019-04-14T08:24:48.662Z,69.48
2019-04-14T08:27:20.523Z,69.78
2019-04-14T08:29:51.947Z,68.92
2019-04-14T08:32:23.832Z,70.00
2019-04-14T08:34:55.317Z,69.86
2019-04-14T08:37:27.748Z,70.01
2019-04-14T08:40:02.672Z,69.33
2019-04-14T08:42:52.144Z,69.42
2019-04-14T08:45:45.559Z,69.43
2019-04-14T08:48:35.281Z,69.95
2019-04-14T08:51:24.857Z,68.70
2019-04-14T08:54:01.946Z,68.24
2019-04-14T08:56:40.430Z,68.17
2019-04-14T08:59:33.343Z,68.12
2019-04-14T09:02:10.533Z,68.63
2019-04-14T09:04:58.635Z,67.44
2019-04-14T09:07:42.580Z,67.24
2019-04-14T09:10:24.067Z,67.30
2019-04-14T09:12:57.160Z,66.81
2019-04-14T09:15:29.257Z,65.87
2019-04-14T09:18:01.034Z,65.46
2019-04-14T09:20:33.458Z,66.42
2019-04-14T09:23:04.814Z,66.14
2019-04-14T09:25:37.023Z,66.34
2019-04-14T09:28:08.526Z,66.40
2019-04-14T09:30:40.001Z,66.28
2019-04-14T09:33:12.053Z,65.45
2019-04-14T09:35:44.675Z,64.71
2019-04-14T09:38:16.386Z,65.66
2019-04-14T09:40:47.926Z,65.86
2019-04-14T09:43:19.380Z,65.82
2019-04-14T09:45:51.136Z,65.26
2019-04-14T09:48:22.910Z,65.76
2019-04-14T09:51:04.278Z,65.91
2019-04-14T09:53:28.224Z,65.97
2019-04-14T09:56:00.975Z,65.93
2019-04-14T09:58:32.804Z,66.26
2019-04-14T10:01:04.315Z,66.69
2019-04-14T10:03:35.861Z,67.25
2019-04-14T10:06:07.709Z,67.96
2019-04-14T10:08:39.864Z,68.28
2019-04-14T10:11:11.191Z,68.89
2019-04-14T10:13:42.979Z,69.37
2019-04-14T10:16:16.340Z,69.85
2019-04-14T10:18:48.165Z,69.99
2019-04-14T10:21:19.541Z,71.15
2019-04-14T10:23:50.995Z,71.39
2019-04-14T10:26:22.345Z,71.50
2019-04-14T10:28:54.007Z,72.33
2019-04-14T10:31:26.476Z,72.34
2019-04-14T10:33:57.967Z,72.85
2019-04-14T10:36:31.899Z,72.63
2019-04-14T10:39:05.102Z,72.03
2019-04-14T10:41:37.374Z,72.97
2019-04-14T10:44:08.899Z,73.91
2019-04-14T10:46:41.007Z,74.38
2019-04-14T10:49:13.103Z,74.57
2019-04-14T10:51:44.874Z,74.99
2019-04-14T10:54:16.697Z,74.79
2019-04-14T10:56:48.457Z,74.80
2019-04-14T10:59:19.815Z,74.74
2019-04-14T11:01:51.198Z,75.04
2019-04-14T11:04:22.719Z,74.99
2019-04-14T11:07:04.287Z,74.45
2019-04-14T11:09:36.063Z,75.05
2019-04-14T11:12:08.040Z,75.33
2019-04-14T11:14:39.772Z,73.68
2019-04-14T11:17:11.305Z,74.47
2019-04-14T11:19:42.561Z,74.88
2019-04-14T11:22:14.326Z,73.97
2019-04-14T11:24:46.485Z,75.21
2019-04-14T11:27:18.113Z,75.59
2019-04-14T11:29:53.866Z,75.05
2019-04-14T11:32:57.401Z,75.98
2019-04-14T11:35:34.596Z,75.69
2019-04-14T11:38:24.278Z,75.87
2019-04-14T11:40:58.171Z,76.02
2019-04-14T11:43:30.173Z,76.01
2019-04-14T11:46:03.782Z,75.41
2019-04-14T11:48:35.703Z,76.04
2019-04-14T11:51:07.126Z,75.98
2019-04-14T11:53:39.119Z,75.75
2019-04-14T11:56:13.397Z,75.49
2019-04-14T11:58:45.384Z,75.60
2019-04-14T12:01:32.613Z,75.57
2019-04-14T12:04:10.267Z,76.04
2019-04-14T12:06:59.610Z,76.34
2019-04-14T12:09:34.271Z,75.73
2019-04-14T12:12:10.378Z,76.49
2019-04-14T12:14:41.951Z,76.77
2019-04-14T12:17:14.015Z,76.46
2019-04-14T12:19:45.812Z,76.45
2019-04-14T12:22:17.656Z,76.70
2019-04-14T12:24:49.608Z,76.20
2019-04-14T12:27:21.352Z,77.05
2019-04-14T12:30:01.056Z,77.25
2019-04-14T12:32:36.301Z,76.92
2019-04-14T12:35:10.257Z,75.91
2019-04-14T12:37:42.637Z,77.39
2019-04-14T12:40:15.634Z,77.39
2019-04-14T12:43:15.567Z,76.83
2019-04-14T12:46:09.870Z,76.58
2019-04-14T12:48:50.525Z,77.97
2019-04-14T12:51:29.380Z,78.37
2019-04-14T12:59:07.422Z,77.26
2019-04-14T13:02:39.926Z,77.93
2019-04-14T13:13:03.622Z,77.97
2019-04-14T13:15:35.639Z,78.40
2019-04-14T13:18:07.075Z,76.25
2019-04-14T13:20:39.347Z,77.50
2019-04-14T13:23:12.671Z,77.60
2019-04-14T13:25:44.737Z,78.63
2019-04-14T13:28:21.461Z,78.95
2019-04-14T13:31:14.801Z,78.82
2019-04-14T13:33:46.522Z,78.83
2019-04-14T13:36:18.140Z,79.76
2019-04-14T13:38:50.196Z,78.74
2019-04-14T13:41:21.764Z,78.32
2019-04-14T13:43:53.135Z,79.22
2019-04-14T13:46:25.062Z,78.33
2019-04-14T13:48:56.990Z,78.41
2019-04-14T13:51:29.602Z,79.02
2019-04-14T13:54:01.986Z,79.18
2019-04-14T13:56:34.054Z,78.98
2019-04-14T13:59:05.782Z,76.60
2019-04-14T14:01:37.085Z,79.11
2019-04-14T14:04:09.489Z,77.87
2019-04-14T14:06:40.621Z,78.82
2019-04-14T14:09:12.629Z,78.05
2019-04-14T14:12:00.344Z,78.94
2019-04-14T14:14:46.887Z,78.86
2019-04-14T14:17:39.848Z,78.90
2019-04-14T14:20:18.280Z,79.08
2019-04-14T14:23:00.573Z,79.01
2019-04-14T14:25:46.005Z,79.12
2019-04-14T14:28:17.334Z,79.13
2019-04-14T14:30:48.625Z,79.28
2019-04-14T14:33:20.650Z,79.61
2019-04-14T14:35:52.053Z,79.10
2019-04-14T14:38:24.118Z,79.38
2019-04-14T14:40:57.427Z,78.69
2019-04-14T14:43:28.811Z,78.80
2019-04-14T14:46:23.980Z,78.53
2019-04-14T14:49:03.849Z,78.90
2019-04-14T14:51:47.763Z,78.91
2019-04-14T14:54:20.086Z,78.52
2019-04-14T14:56:51.816Z,78.51
2019-04-14T14:59:23.526Z,78.78
2019-04-14T15:01:56.529Z,77.85
2019-04-14T15:04:29.295Z,78.21
2019-04-14T15:07:01.075Z,78.20
2019-04-14T15:09:32.699Z,78.31
2019-04-14T15:12:04.354Z,78.48
2019-04-14T15:14:36.699Z,78.37
2019-04-14T15:17:08.630Z,77.88
2019-04-14T15:19:42.870Z,77.61
2019-04-14T15:22:15.531Z,77.78
2019-04-14T15:24:47.027Z,77.80
2019-04-14T15:27:19.990Z,77.35
2019-04-14T15:29:51.428Z,76.66
2019-04-14T15:32:24.194Z,77.82
2019-04-14T15:34:56.900Z,77.02
2019-04-14T15:37:31.771Z,77.15
2019-04-14T15:40:03.468Z,77.64
2019-04-14T15:42:35.195Z,77.34
2019-04-14T15:45:07.468Z,77.50
2019-04-14T15:47:40.252Z,77.57
2019-04-14T15:50:12.248Z,77.81
2019-04-14T15:52:44.028Z,77.51
2019-04-14T15:55:17.928Z,77.54
2019-04-14T15:58:04.060Z,77.78
2019-04-14T16:00:52.108Z,77.17
2019-04-14T16:03:35.749Z,77.47
2019-04-14T16:06:28.675Z,77.33
2019-04-14T16:09:28.896Z,77.25
2019-04-14T16:12:12.742Z,78.03
2019-04-14T16:14:54.325Z,77.85
2019-04-14T16:17:45.092Z,78.01
2019-04-14T16:20:19.693Z,77.63
2019-04-14T16:22:52.031Z,77.69
2019-04-14T16:25:26.762Z,77.33
2019-04-14T16:28:10.852Z,77.54
2019-04-14T16:31:08.838Z,77.72
2019-04-14T16:33:58.482Z,78.06
2019-04-14T16:36:31.369Z,78.10
2019-04-14T16:39:05.343Z,77.85
2019-04-14T16:41:36.419Z,76.03
2019-04-14T16:44:07.528Z,77.89
2019-04-14T16:46:39.386Z,78.37
2019-04-14T16:49:10.766Z,75.87
2019-04-14T16:51:48.124Z,77.21
2019-04-14T16:54:30.614Z,75.27
2019-04-14T16:57:33.528Z,73.82
2019-04-14T17:00:05.968Z,75.53
2019-04-14T17:02:37.775Z,74.73
2019-04-14T17:05:09.708Z,74.45
2019-04-14T17:07:41.194Z,77.28
2019-04-14T17:10:13.419Z,77.14
2019-04-14T17:12:45.501Z,78.37
2019-04-14T17:15:44.685Z,78.69
2019-04-14T17:18:42.337Z,78.45
2019-04-14T17:21:32.053Z,78.58
2019-04-14T17:24:22.366Z,78.39
2019-04-14T17:27:17.618Z,78.53
2019-04-14T17:30:02.766Z,76.65
2019-04-14T17:32:50.399Z,74.73
2019-04-14T17:35:41.243Z,77.47
2019-04-14T17:38:26.608Z,78.17
2019-04-14T17:41:23.154Z,77.42
2019-04-14T17:44:01.089Z,74.77
2019-04-14T17:47:03.657Z,74.39
2019-04-14T17:49:47.317Z,75.12
2019-04-14T17:52:38.975Z,74.40
2019-04-14T17:55:25.203Z,73.31
2019-04-14T17:58:16.435Z,76.46
2019-04-14T18:00:54.759Z,77.96
2019-04-14T18:03:54.595Z,78.56
2019-04-14T18:06:45.359Z,78.17
2019-04-14T18:09:47.433Z,79.58
2019-04-14T18:12:29.832Z,79.61
2019-04-14T18:15:15.836Z,79.07
2019-04-14T18:17:57.957Z,79.76
2019-04-14T18:20:32.853Z,79.73
2019-04-14T18:23:04.891Z,80.09
2019-04-14T18:25:36.812Z,80.38
2019-04-14T18:28:35.688Z,80.76
2019-04-14T18:31:26.275Z,80.64
2019-04-14T18:34:25.819Z,79.74
2019-04-14T18:37:16.839Z,76.47
2019-04-14T18:40:10.166Z,77.89
2019-04-14T18:43:00.398Z,79.52
2019-04-14T18:45:36.276Z,78.80
2019-04-14T18:48:25.874Z,78.61
2019-04-14T18:51:19.138Z,78.64
2019-04-14T18:54:04.438Z,76.51
2019-04-14T18:56:55.027Z,76.86
2019-04-14T18:59:50.935Z,75.55
2019-04-14T19:02:22.556Z,77.17
2019-04-14T19:04:54.368Z,78.82
2019-04-14T19:07:25.825Z,77.84
2019-04-14T19:09:57.906Z,77.75
2019-04-14T19:12:48.825Z,77.69
2019-04-14T19:15:34.331Z,77.75
2019-04-14T19:18:10.883Z,77.99
2019-04-14T19:20:45.704Z,77.56
2019-04-14T19:23:17.190Z,79.15
2019-04-14T19:25:50.521Z,79.27
2019-04-14T19:28:21.803Z,80.12
2019-04-14T19:30:54.685Z,79.83
2019-04-14T19:33:26.616Z,79.98
2019-04-14T19:36:00.023Z,78.25
2019-04-14T19:38:32.160Z,79.71
2019-04-14T19:41:04.121Z,78.58
2019-04-14T19:43:36.021Z,78.32
2019-04-14T19:46:07.581Z,79.62
2019-04-14T19:48:39.550Z,79.28
2019-04-14T19:51:12.467Z,78.78
2019-04-14T19:53:45.957Z,79.35
2019-04-14T19:56:18.081Z,78.37
2019-04-14T19:58:50.111Z,77.96
2019-04-14T20:01:21.871Z,77.03
2019-04-14T20:03:53.130Z,77.29
2019-04-14T20:06:24.647Z,78.68
2019-04-14T20:08:56.465Z,76.02
2019-04-14T20:11:28.199Z,77.04
2019-04-14T20:14:00.241Z,76.61
2019-04-14T20:16:59.982Z,76.40
2019-04-14T20:19:56.797Z,77.59
2019-04-14T20:22:56.210Z,78.96
2019-04-14T20:26:05.417Z,78.40
2019-04-14T20:28:59.288Z,79.17
2019-04-14T20:31:50.811Z,78.12
2019-04-14T20:34:28.592Z,78.42
2019-04-14T20:37:00.169Z,79.50
2019-04-14T20:39:32.762Z,79.74
2019-04-14T20:42:07.463Z,80.59
2019-04-14T20:44:38.902Z,81.00
2019-04-14T20:47:10.784Z,80.88
2019-04-14T20:49:42.490Z,80.46
2019-04-14T20:52:13.768Z,80.45
2019-04-14T20:54:45.004Z,80.30
2019-04-14T20:57:16.335Z,81.18
2019-04-14T20:59:47.599Z,80.90
2019-04-14T21:05:40.834Z,80.45
2019-04-14T21:08:50.003Z,80.46
2019-04-14T21:11:35.680Z,80.63
2019-04-14T21:14:29.308Z,79.80
2019-04-14T21:17:07.149Z,80.23
2019-04-14T21:19:53.149Z,79.42
2019-04-14T21:22:35.499Z,79.20
2019-04-14T21:25:25.926Z,79.30
2019-04-14T21:28:15.007Z,78.42
2019-04-14T21:31:11.976Z,78.97
2019-04-14T21:34:02.115Z,79.10
2019-04-14T21:36:47.333Z,79.26
2019-04-14T21:39:49.878Z,79.53
2019-04-14T21:42:21.968Z,79.12
2019-04-14T21:44:53.720Z,79.55
2019-04-14T21:47:25.134Z,79.55
2019-04-14T21:49:58.977Z,78.87
2019-04-14T21:52:34.881Z,79.74
2019-04-14T21:55:07.236Z,79.33
2019-04-14T21:57:46.564Z,78.16
2019-04-14T22:00:28.210Z,78.37
2019-04-14T22:03:21.807Z,78.96
2019-04-14T22:06:16.419Z,78.52
2019-04-14T22:08:50.552Z,78.82
2019-04-14T22:11:26.222Z,78.11
2019-04-14T22:13:57.962Z,78.16
2019-04-14T22:16:30.052Z,77.23
2019-04-14T22:19:01.887Z,78.13
2019-04-14T22:21:33.820Z,77.88
2019-04-14T22:24:05.190Z,77.45
2019-04-14T22:26:36.632Z,77.41
2019-04-14T22:29:10.674Z,78.14
2019-04-14T22:31:42.119Z,77.64
2019-04-14T22:34:13.777Z,77.47
2019-04-14T22:36:45.150Z,76.93
2019-04-14T22:39:17.355Z,76.40
2019-04-14T22:41:49.098Z,76.86
2019-04-14T22:44:20.856Z,76.49
2019-04-14T22:46:52.463Z,76.62
2019-04-14T22:49:23.816Z,76.16
2019-04-14T22:51:55.884Z,76.08
2019-04-14T22:54:27.915Z,76.54
2019-04-14T22:56:59.325Z,76.68
2019-04-14T22:59:31.115Z,76.24
2019-04-14T23:02:10.366Z,76.41
2019-04-14T23:05:11.198Z,76.96
2019-04-14T23:07:55.301Z,76.67
2019-04-14T23:10:41.914Z,77.91
2019-04-14T23:13:22.752Z,76.79
2019-04-14T23:16:20.165Z,77.02
2019-04-14T23:18:58.837Z,77.39
2019-04-14T23:21:49.068Z,77.31
2019-04-14T23:24:26.615Z,78.54
2019-04-14T23:26:58.058Z,78.26
2019-04-14T23:29:30.063Z,78.89
2019-04-14T23:32:01.567Z,78.20
2019-04-14T23:34:33.297Z,78.42
2019-04-14T23:37:05.180Z,78.42
2019-04-14T23:39:36.594Z,78.32
2019-04-14T23:42:10.727Z,78.78
2019-04-14T23:44:42.487Z,78.59
2019-04-14T23:47:13.810Z,78.59
2019-04-14T23:49:45.068Z,78.32
2019-04-14T23:52:16.480Z,78.91
2019-04-14T23:54:47.751Z,78.49
2019-04-14T23:57:19.104Z,79.17
2019-04-14T23:59:50.437Z,78.69
